createdAt,value
2023-01-15T00:00:26.978Z,84.32
2023-01-15T00:01:28.104Z,84.17
2023-01-15T00:02:17.519Z,83.79
2023-01-15T00:03:04.525Z,84.25
2023-01-15T00:03:52.197Z,83.88
2023-01-15T00:04:39.092Z,83.54
2023-01-15T00:05:25.990Z,83.23
2023-01-15T00:06:12.856Z,83.09
2023-01-15T00:06:59.780Z,82.52
2023-01-15T00:07:46.657Z,82.67
2023-01-15T00:08:33.526Z,82.26
2023-01-15T00:09:20.534Z,82.11
2023-01-15T00:10:08.007Z,81.52
2023-01-15T00:10:57.453Z,81.49
2023-01-15T00:11:44.327Z,81.48
2023-01-15T00:12:31.250Z,81.61
2023-01-15T00:13:18.086Z,81.67
2023-01-15T00:14:05.003Z,81.13
2023-01-15T00:14:52.082Z,81.10
2023-01-15T00:15:39.060Z,80.59
2023-01-15T00:16:26.625Z,80.43
2023-01-15T00:17:13.532Z,79.72
2023-01-15T00:18:00.460Z,80.01
2023-01-15T00:18:51.815Z,80.23
2023-01-15T00:19:38.733Z,80.12
2023-01-15T00:20:25.886Z,79.89
2023-01-15T00:21:14.009Z,79.92
2023-01-15T00:22:00.884Z,79.92
2023-01-15T00:22:47.847Z,79.01
2023-01-15T00:23:53.459Z,79.01
2023-01-15T00:24:59.133Z,79.40
2023-01-15T00:26:04.649Z,79.13
2023-01-15T00:27:10.281Z,79.04
2023-01-15T00:27:57.142Z,78.61
2023-01-15T00:28:44.040Z,78.41
2023-01-15T00:29:32.683Z,78.37
2023-01-15T00:30:19.573Z,78.48
2023-01-15T00:31:06.519Z,78.58
2023-01-15T00:32:02.648Z,78.68
2023-01-15T00:32:49.567Z,77.92
2023-01-15T00:33:36.542Z,77.68
2023-01-15T00:34:23.591Z,77.55
2023-01-15T00:35:19.169Z,76.43
2023-01-15T00:36:06.467Z,76.28
2023-01-15T00:36:53.670Z,76.12
2023-01-15T00:37:40.611Z,75.92
2023-01-15T00:38:27.454Z,75.84
2023-01-15T00:39:14.448Z,75.52
2023-01-15T00:40:01.279Z,75.94
2023-01-15T00:40:53.107Z,75.33
2023-01-15T00:41:39.968Z,74.91
2023-01-15T00:42:26.799Z,75.13
2023-01-15T00:43:14.814Z,75.10
2023-01-15T00:44:01.816Z,74.68
2023-01-15T00:44:49.957Z,74.45
2023-01-15T00:45:36.857Z,73.95
2023-01-15T00:46:23.762Z,73.60
2023-01-15T00:47:15.073Z,74.14
2023-01-15T00:48:01.973Z,74.04
2023-01-15T00:48:49.109Z,73.93
2023-01-15T00:49:36.026Z,74.10
2023-01-15T00:50:22.904Z,73.90
2023-01-15T00:51:09.801Z,73.79
2023-01-15T00:51:56.850Z,73.78
2023-01-15T00:52:43.899Z,73.87
2023-01-15T00:53:31.449Z,73.66
2023-01-15T00:54:18.648Z,73.66
2023-01-15T00:55:06.930Z,74.29
2023-01-15T00:55:53.987Z,74.52
2023-01-15T00:56:40.984Z,74.23
2023-01-15T00:57:27.920Z,74.71
2023-01-15T00:58:14.791Z,74.00
2023-01-15T00:59:03.215Z,73.78
2023-01-15T00:59:50.066Z,73.88
2023-01-15T01:00:37.046Z,73.72
2023-01-15T01:01:24.266Z,74.26
2023-01-15T01:02:11.358Z,74.62
2023-01-15T01:02:58.295Z,75.30
2023-01-15T01:03:49.063Z,75.08
2023-01-15T01:04:35.909Z,74.36
2023-01-15T01:05:22.776Z,74.09
2023-01-15T01:06:11.341Z,74.72
2023-01-15T01:06:58.452Z,73.86
2023-01-15T01:07:45.372Z,73.81
2023-01-15T01:08:32.248Z,74.22
2023-01-15T01:09:19.106Z,73.63
2023-01-15T01:10:06.491Z,73.62
2023-01-15T01:11:05.696Z,73.86
2023-01-15T01:11:52.567Z,73.83
2023-01-15T01:12:39.536Z,73.86
2023-01-15T01:13:26.379Z,73.90
2023-01-15T01:14:13.321Z,73.97
2023-01-15T01:15:00.130Z,73.88
2023-01-15T01:15:46.945Z,73.54
2023-01-15T01:16:37.808Z,73.06
2023-01-15T01:17:24.811Z,73.22
2023-01-15T01:18:11.661Z,73.72
2023-01-15T01:19:00.216Z,73.23
2023-01-15T01:19:47.065Z,73.55
2023-01-15T01:20:34.462Z,73.04
2023-01-15T01:21:21.493Z,72.75
2023-01-15T01:22:08.356Z,73.07
2023-01-15T01:22:56.280Z,73.42
2023-01-15T01:23:43.213Z,73.54
2023-01-15T01:24:30.058Z,73.77
2023-01-15T01:25:16.967Z,73.56
2023-01-15T01:26:03.855Z,73.42
2023-01-15T01:26:54.096Z,73.13
2023-01-15T01:27:41.527Z,72.59
2023-01-15T01:28:28.453Z,72.48
2023-01-15T01:29:20.658Z,72.49
2023-01-15T01:30:08.571Z,72.56
2023-01-15T01:30:55.464Z,72.53
2023-01-15T01:31:42.803Z,72.59
2023-01-15T01:32:29.664Z,72.62
2023-01-15T01:33:16.627Z,72.87
2023-01-15T01:34:03.641Z,73.29
2023-01-15T01:34:50.524Z,73.55
2023-01-15T01:35:37.454Z,73.09
2023-01-15T01:36:29.804Z,73.17
2023-01-15T01:37:16.727Z,73.39
2023-01-15T01:38:04.232Z,73.63
2023-01-15T01:38:51.156Z,73.55
2023-01-15T01:39:38.071Z,72.92
2023-01-15T01:40:25.047Z,72.52
2023-01-15T01:41:11.999Z,73.18
2023-01-15T01:41:58.850Z,73.35
2023-01-15T01:42:45.921Z,73.40
2023-01-15T01:44:01.787Z,73.17
2023-01-15T01:44:48.614Z,72.71
2023-01-15T01:45:35.569Z,72.17
2023-01-15T01:46:22.941Z,72.14
2023-01-15T01:47:15.825Z,72.37
2023-01-15T01:48:07.418Z,72.17
2023-01-15T01:49:00.597Z,72.67
2023-01-15T01:49:48.095Z,72.87
2023-01-15T01:50:35.532Z,72.20
2023-01-15T01:51:26.056Z,72.24
2023-01-15T01:52:16.105Z,71.87
2023-01-15T01:53:09.267Z,72.09
2023-01-15T01:53:57.081Z,72.45
2023-01-15T01:54:44.805Z,72.23
2023-01-15T01:55:34.060Z,72.42
2023-01-15T01:56:21.127Z,72.68
2023-01-15T01:57:09.031Z,72.52
2023-01-15T01:57:59.125Z,72.53
2023-01-15T01:58:48.965Z,72.71
2023-01-15T01:59:36.334Z,72.15
2023-01-15T02:00:23.766Z,72.51
2023-01-15T02:01:10.713Z,72.25
2023-01-15T02:01:57.800Z,72.19
2023-01-15T02:02:46.578Z,72.02
2023-01-15T02:03:37.655Z,71.21
2023-01-15T02:04:26.162Z,71.12
2023-01-15T02:05:39.160Z,71.03
2023-01-15T02:06:26.725Z,70.76
2023-01-15T02:07:13.660Z,71.15
2023-01-15T02:08:01.306Z,71.36
2023-01-15T02:08:48.234Z,71.33
2023-01-15T02:09:35.161Z,70.80
2023-01-15T02:10:22.154Z,70.94
2023-01-15T02:11:14.571Z,70.86
2023-01-15T02:12:25.833Z,71.46
2023-01-15T02:13:34.520Z,70.70
2023-01-15T02:15:09.354Z,70.49
2023-01-15T02:16:17.004Z,70.30
2023-01-15T02:17:34.331Z,69.97
2023-01-15T02:18:26.724Z,70.58
2023-01-15T02:19:46.468Z,70.59
2023-01-15T02:20:46.835Z,70.53
2023-01-15T02:22:05.536Z,71.03
2023-01-15T02:23:04.864Z,70.65
2023-01-15T02:24:07.012Z,70.09
2023-01-15T02:25:11.908Z,70.11
2023-01-15T02:26:10.408Z,70.27
2023-01-15T02:27:03.049Z,69.60
2023-01-15T02:27:53.597Z,69.59
2023-01-15T02:28:45.654Z,69.70
2023-01-15T02:29:47.495Z,69.27
2023-01-15T02:30:41.333Z,69.05
2023-01-15T02:31:34.898Z,68.96
2023-01-15T02:32:31.040Z,69.43
2023-01-15T02:33:27.006Z,69.26
2023-01-15T02:34:22.387Z,69.19
2023-01-15T02:35:35.351Z,69.02
2023-01-15T02:36:24.438Z,68.22
2023-01-15T02:37:15.392Z,68.36
2023-01-15T02:38:07.099Z,68.22
2023-01-15T02:38:56.658Z,67.92
2023-01-15T02:39:45.423Z,67.67
2023-01-15T02:40:33.132Z,68.11
2023-01-15T02:41:22.636Z,67.50
2023-01-15T02:42:10.786Z,67.33
2023-01-15T02:42:58.067Z,67.19
2023-01-15T02:43:51.236Z,67.44
2023-01-15T02:44:42.046Z,67.12
2023-01-15T02:45:34.112Z,67.99
2023-01-15T02:46:24.733Z,67.87
2023-01-15T02:47:11.554Z,67.56
2023-01-15T02:48:03.923Z,67.07
2023-01-15T02:48:53.794Z,66.01
2023-01-15T02:49:41.569Z,67.21
2023-01-15T02:50:33.445Z,66.53
2023-01-15T02:51:25.337Z,66.34
2023-01-15T02:52:35.762Z,66.57
2023-01-15T02:53:26.639Z,66.43
2023-01-15T02:54:15.379Z,66.03
2023-01-15T02:55:12.911Z,66.35
2023-01-15T02:56:03.951Z,65.99
2023-01-15T02:56:51.630Z,66.09
2023-01-15T02:57:39.898Z,65.58
2023-01-15T02:58:32.482Z,65.36
2023-01-15T02:59:24.489Z,65.10
2023-01-15T03:00:14.394Z,64.96
2023-01-15T03:01:06.469Z,65.25
2023-01-15T03:01:57.805Z,65.22
2023-01-15T03:02:50.395Z,64.67
2023-01-15T03:03:45.413Z,64.32
2023-01-15T03:04:34.527Z,63.95
2023-01-15T03:05:26.952Z,64.70
2023-01-15T03:06:22.729Z,64.32
2023-01-15T03:07:15.604Z,64.28
2023-01-15T03:08:03.713Z,64.51
2023-01-15T03:08:50.924Z,64.27
2023-01-15T03:09:38.112Z,64.17
2023-01-15T03:10:36.910Z,64.03
2023-01-15T03:11:23.953Z,64.85
2023-01-15T03:12:16.598Z,63.71
2023-01-15T03:13:03.962Z,63.76
2023-01-15T03:13:56.725Z,63.91
2023-01-15T03:14:53.295Z,63.31
2023-01-15T03:15:58.810Z,63.33
2023-01-15T03:16:53.629Z,63.51
2023-01-15T03:17:54.915Z,63.64
2023-01-15T03:18:49.233Z,63.36
2023-01-15T03:19:41.772Z,62.64
2023-01-15T03:20:29.938Z,63.08
2023-01-15T03:21:21.751Z,63.10
2023-01-15T03:22:20.051Z,62.81
2023-01-15T03:23:11.098Z,63.05
2023-01-15T03:24:01.498Z,63.10
2023-01-15T03:24:54.620Z,62.43
2023-01-15T03:25:47.339Z,63.52
2023-01-15T03:26:34.464Z,62.96
2023-01-15T03:27:22.621Z,62.62
2023-01-15T03:28:11.492Z,62.56
2023-01-15T03:28:59.241Z,62.73
2023-01-15T03:29:48.640Z,62.27
2023-01-15T03:30:35.529Z,62.29
2023-01-15T03:31:22.462Z,62.57
2023-01-15T03:32:09.972Z,62.76
2023-01-15T03:32:57.165Z,62.14
2023-01-15T03:33:44.625Z,62.44
2023-01-15T03:34:42.184Z,61.50
2023-01-15T03:35:49.842Z,61.04
2023-01-15T03:36:36.673Z,61.27
2023-01-15T03:37:25.834Z,61.96
2023-01-15T03:38:36.353Z,61.44
2023-01-15T03:39:23.850Z,61.49
2023-01-15T03:40:11.551Z,61.20
2023-01-15T03:41:02.833Z,60.26
2023-01-15T03:42:12.969Z,61.07
2023-01-15T03:43:24.331Z,61.14
2023-01-15T03:44:33.291Z,60.57
2023-01-15T03:45:23.181Z,60.94
2023-01-15T03:46:37.074Z,60.42
2023-01-15T03:47:23.954Z,60.41
2023-01-15T03:48:32.752Z,60.29
2023-01-15T03:49:27.396Z,61.20
2023-01-15T03:50:33.558Z,60.46
2023-01-15T03:51:24.194Z,60.45
2023-01-15T03:52:10.869Z,61.11
2023-01-15T03:53:15.868Z,60.38
2023-01-15T03:54:03.906Z,60.28
2023-01-15T03:54:53.747Z,59.60
2023-01-15T03:55:49.268Z,60.30
2023-01-15T03:56:45.472Z,59.99
2023-01-15T03:57:59.171Z,60.12
2023-01-15T03:58:50.042Z,59.96
2023-01-15T03:59:40.133Z,59.87
2023-01-15T04:00:30.858Z,59.51
2023-01-15T04:01:20.957Z,59.84
2023-01-15T04:02:10.249Z,59.21
2023-01-15T04:02:58.724Z,58.96
2023-01-15T04:03:46.548Z,58.77
2023-01-15T04:04:34.080Z,59.10
2023-01-15T04:05:21.804Z,59.27
2023-01-15T04:06:09.766Z,59.57
2023-01-15T04:06:57.315Z,59.24
2023-01-15T04:07:44.550Z,58.81
2023-01-15T04:08:38.850Z,58.60
2023-01-15T04:09:25.748Z,59.08
2023-01-15T04:10:12.604Z,59.04
2023-01-15T04:11:01.535Z,58.56
2023-01-15T04:11:48.441Z,59.03
2023-01-15T04:12:35.419Z,59.11
2023-01-15T04:13:22.429Z,59.30
2023-01-15T04:14:15.847Z,58.71
2023-01-15T04:15:02.706Z,58.14
2023-01-15T04:15:50.312Z,57.92
2023-01-15T04:16:37.251Z,58.28
2023-01-15T04:17:24.138Z,58.03
2023-01-15T04:18:11.044Z,57.98
2023-01-15T04:18:58.326Z,58.52
2023-01-15T04:19:45.204Z,57.48
2023-01-15T04:20:32.010Z,57.90
2023-01-15T04:21:18.869Z,58.21
2023-01-15T04:22:05.692Z,58.68
2023-01-15T04:22:52.572Z,58.65
2023-01-15T04:23:39.440Z,58.25
2023-01-15T04:24:26.521Z,57.69
2023-01-15T04:25:13.413Z,57.92
2023-01-15T04:26:00.247Z,58.65
2023-01-15T04:26:47.108Z,58.47
2023-01-15T04:27:33.988Z,58.57
2023-01-15T04:28:21.050Z,58.82
2023-01-15T04:29:08.084Z,58.08
2023-01-15T04:29:54.906Z,58.18
2023-01-15T04:30:43.764Z,57.91
2023-01-15T04:31:33.548Z,58.16
2023-01-15T04:32:20.378Z,58.04
2023-01-15T04:33:07.199Z,58.09
2023-01-15T04:33:54.171Z,57.56
2023-01-15T04:34:41.114Z,58.13
2023-01-15T04:35:28.075Z,57.93
2023-01-15T04:36:14.883Z,58.48
2023-01-15T04:37:01.738Z,58.56
2023-01-15T04:37:48.758Z,59.17
2023-01-15T04:38:38.206Z,58.50
2023-01-15T04:39:25.161Z,58.41
2023-01-15T04:40:35.539Z,58.38
2023-01-15T04:41:41.051Z,58.69
2023-01-15T04:42:46.750Z,59.02
2023-01-15T04:43:52.276Z,58.73
2023-01-15T04:44:39.809Z,59.14
2023-01-15T04:45:26.673Z,59.34
2023-01-15T04:46:13.790Z,58.95
2023-01-15T04:47:00.993Z,58.90
2023-01-15T04:47:47.847Z,59.33
2023-01-15T04:48:34.721Z,59.30
2023-01-15T04:49:21.602Z,59.08
2023-01-15T04:50:09.244Z,59.11
2023-01-15T04:50:56.128Z,59.54
2023-01-15T04:51:43.501Z,59.54
2023-01-15T04:52:30.443Z,59.64
2023-01-15T04:53:17.754Z,60.49
2023-01-15T04:54:05.813Z,59.82
2023-01-15T04:54:55.241Z,59.55
2023-01-15T04:55:42.065Z,59.64
2023-01-15T04:56:28.864Z,59.96
2023-01-15T04:57:15.735Z,59.24
2023-01-15T04:58:02.611Z,59.10
2023-01-15T04:58:49.443Z,59.08
2023-01-15T04:59:36.356Z,58.86
2023-01-15T05:00:23.474Z,58.44
2023-01-15T05:01:15.570Z,58.80
2023-01-15T05:02:05.695Z,58.92
2023-01-15T05:02:53.373Z,59.27
2023-01-15T05:03:40.515Z,58.82
2023-01-15T05:04:27.376Z,59.32
2023-01-15T05:05:14.230Z,59.06
2023-01-15T05:06:04.543Z,58.63
2023-01-15T05:06:51.551Z,59.60
2023-01-15T05:07:38.361Z,59.42
2023-01-15T05:08:25.202Z,59.30
2023-01-15T05:09:12.063Z,59.24
2023-01-15T05:09:58.881Z,59.37
2023-01-15T05:10:45.725Z,59.73
2023-01-15T05:11:35.983Z,59.47
2023-01-15T05:12:23.211Z,59.65
2023-01-15T05:13:10.078Z,59.91
2023-01-15T05:13:57.071Z,59.69
2023-01-15T05:14:43.923Z,59.89
2023-01-15T05:15:30.777Z,59.93
2023-01-15T05:16:20.185Z,59.97
2023-01-15T05:17:07.053Z,59.95
2023-01-15T05:17:53.911Z,60.05
2023-01-15T05:18:42.161Z,60.31
2023-01-15T05:19:29.053Z,60.66
2023-01-15T05:20:16.041Z,60.52
2023-01-15T05:21:02.913Z,60.47
2023-01-15T05:21:49.751Z,60.43
2023-01-15T05:22:36.596Z,60.41
2023-01-15T05:23:23.481Z,60.53
2023-01-15T05:24:14.257Z,61.29
2023-01-15T05:25:01.193Z,61.28
2023-01-15T05:25:48.113Z,61.50
2023-01-15T05:26:35.909Z,61.16
2023-01-15T05:27:22.803Z,60.93
2023-01-15T05:29:07.434Z,61.52
2023-01-15T05:29:54.314Z,61.24
2023-01-15T05:30:41.313Z,61.55
2023-01-15T05:31:29.157Z,60.94
2023-01-15T05:32:15.958Z,60.84
2023-01-15T05:33:02.825Z,61.20
2023-01-15T05:33:50.554Z,61.24
2023-01-15T05:34:37.524Z,61.09
2023-01-15T05:35:24.343Z,61.60
2023-01-15T05:36:15.193Z,61.92
2023-01-15T05:37:02.062Z,61.39
2023-01-15T05:37:48.934Z,61.87
2023-01-15T05:38:36.499Z,61.76
2023-01-15T05:39:23.343Z,62.31
2023-01-15T05:40:10.865Z,62.22
2023-01-15T05:40:57.954Z,62.13
2023-01-15T05:41:51.001Z,62.27
2023-01-15T05:42:37.982Z,62.86
2023-01-15T05:43:24.984Z,63.09
2023-01-15T05:44:12.864Z,63.08
2023-01-15T05:44:59.754Z,63.21
2023-01-15T05:45:46.544Z,62.88
2023-01-15T05:46:34.706Z,62.95
2023-01-15T05:47:21.576Z,62.71
2023-01-15T05:48:08.426Z,62.81
2023-01-15T05:48:55.602Z,62.99
2023-01-15T05:49:42.581Z,62.95
2023-01-15T05:50:29.380Z,62.69
2023-01-15T05:51:17.058Z,62.86
2023-01-15T05:52:04.045Z,62.94
2023-01-15T05:52:50.951Z,63.00
2023-01-15T05:53:37.772Z,63.28
2023-01-15T05:54:27.285Z,63.33
2023-01-15T05:55:14.085Z,63.24
2023-01-15T05:56:05.204Z,63.89
2023-01-15T05:56:52.938Z,64.11
2023-01-15T05:57:39.773Z,64.07
2023-01-15T05:58:26.582Z,63.65
2023-01-15T05:59:14.187Z,63.44
2023-01-15T06:00:01.145Z,63.85
2023-01-15T06:00:48.034Z,64.24
2023-01-15T06:01:35.685Z,64.00
2023-01-15T06:02:23.043Z,64.37
2023-01-15T06:03:09.985Z,64.03
2023-01-15T06:04:01.081Z,64.15
2023-01-15T06:04:47.926Z,64.54
2023-01-15T06:05:34.786Z,64.83
2023-01-15T06:06:21.739Z,64.85
2023-01-15T06:07:08.580Z,65.44
2023-01-15T06:07:55.632Z,64.89
2023-01-15T06:08:42.663Z,64.90
2023-01-15T06:09:29.846Z,64.94
2023-01-15T06:10:17.682Z,64.89
2023-01-15T06:11:04.642Z,65.40
2023-01-15T06:11:51.729Z,65.57
2023-01-15T06:12:38.634Z,65.25
2023-01-15T06:13:25.517Z,65.50
2023-01-15T06:14:12.912Z,65.18
2023-01-15T06:14:59.743Z,65.42
2023-01-15T06:15:46.691Z,65.65
2023-01-15T06:16:34.055Z,65.82
2023-01-15T06:17:20.868Z,65.96
2023-01-15T06:18:08.154Z,66.25
2023-01-15T06:18:55.283Z,66.21
2023-01-15T06:19:42.145Z,65.64
2023-01-15T06:20:28.986Z,65.53
2023-01-15T06:21:16.109Z,66.34
2023-01-15T06:22:03.998Z,66.13
2023-01-15T06:22:50.870Z,66.00
2023-01-15T06:23:38.103Z,65.72
2023-01-15T06:24:25.011Z,65.59
2023-01-15T06:25:11.823Z,66.21
2023-01-15T06:26:02.615Z,66.94
2023-01-15T06:26:49.412Z,66.26
2023-01-15T06:27:36.262Z,66.01
2023-01-15T06:28:23.094Z,65.91
2023-01-15T06:29:09.953Z,65.95
2023-01-15T06:29:59.171Z,65.68
2023-01-15T06:30:46.052Z,65.70
2023-01-15T06:31:33.073Z,66.79
2023-01-15T06:32:20.092Z,66.10
2023-01-15T06:33:07.924Z,66.09
2023-01-15T06:33:55.259Z,65.67
2023-01-15T06:34:43.932Z,66.07
2023-01-15T06:35:30.938Z,66.34
2023-01-15T06:36:23.987Z,65.88
2023-01-15T06:37:11.114Z,65.57
2023-01-15T06:37:58.066Z,65.40
2023-01-15T06:38:45.252Z,65.40
2023-01-15T06:39:32.065Z,65.61
2023-01-15T06:40:19.085Z,65.46
2023-01-15T06:41:30.657Z,65.51
2023-01-15T06:42:36.283Z,65.54
2023-01-15T06:43:41.955Z,65.80
2023-01-15T06:44:47.516Z,65.45
2023-01-15T06:45:59.814Z,66.51
2023-01-15T06:47:07.524Z,66.02
2023-01-15T06:47:54.351Z,65.64
2023-01-15T06:48:41.299Z,66.38
2023-01-15T06:49:28.157Z,66.27
2023-01-15T06:50:16.011Z,66.74
2023-01-15T06:51:02.965Z,66.58
2023-01-15T06:51:49.813Z,66.38
2023-01-15T06:52:36.696Z,66.48
2023-01-15T06:53:23.686Z,65.94
2023-01-15T06:54:10.561Z,65.82
2023-01-15T06:54:57.493Z,66.21
2023-01-15T06:55:44.325Z,66.00
2023-01-15T06:56:31.208Z,66.04
2023-01-15T06:57:19.243Z,65.86
2023-01-15T06:58:06.160Z,65.65
2023-01-15T06:58:53.046Z,65.36
2023-01-15T06:59:39.881Z,65.35
2023-01-15T07:00:26.777Z,66.65
2023-01-15T07:01:15.401Z,66.67
2023-01-15T07:02:02.505Z,66.56
2023-01-15T07:02:50.773Z,66.01
2023-01-15T07:03:37.738Z,65.33
2023-01-15T07:04:24.712Z,67.96
2023-01-15T07:05:11.554Z,65.79
2023-01-15T07:05:58.395Z,64.75
2023-01-15T07:06:45.265Z,65.51
2023-01-15T07:07:32.145Z,65.42
2023-01-15T07:08:19.084Z,65.34
2023-01-15T07:09:05.988Z,65.22
2023-01-15T07:09:52.896Z,65.22
2023-01-15T07:10:40.389Z,64.80
2023-01-15T07:11:27.273Z,65.57
2023-01-15T07:12:14.293Z,67.25
2023-01-15T07:13:01.395Z,65.26
2023-01-15T07:13:49.344Z,64.99
2023-01-15T07:14:36.999Z,65.63
2023-01-15T07:15:23.856Z,65.07
2023-01-15T07:16:31.023Z,66.36
2023-01-15T07:17:18.002Z,65.12
2023-01-15T07:18:05.585Z,66.03
2023-01-15T07:18:53.199Z,64.27
2023-01-15T07:19:40.017Z,64.17
2023-01-15T07:20:26.921Z,64.60
2023-01-15T07:21:13.723Z,64.06
2023-01-15T07:22:00.601Z,63.73
2023-01-15T07:22:49.691Z,63.99
2023-01-15T07:23:36.580Z,64.08
2023-01-15T07:24:23.601Z,64.56
2023-01-15T07:25:10.588Z,64.35
2023-01-15T07:25:57.506Z,64.21
2023-01-15T07:26:45.917Z,64.05
2023-01-15T07:27:33.286Z,63.57
2023-01-15T07:28:24.492Z,63.56
2023-01-15T07:29:11.778Z,63.62
2023-01-15T07:29:58.647Z,63.59
2023-01-15T07:30:45.495Z,63.87
2023-01-15T07:31:32.738Z,63.43
2023-01-15T07:32:19.794Z,63.73
2023-01-15T07:33:06.632Z,63.87
2023-01-15T07:33:53.669Z,64.23
2023-01-15T07:34:40.569Z,64.24
2023-01-15T07:35:27.433Z,64.58
2023-01-15T07:36:14.397Z,64.12
2023-01-15T07:37:01.300Z,63.69
2023-01-15T07:37:52.707Z,64.29
2023-01-15T07:38:39.556Z,64.22
2023-01-15T07:39:26.472Z,63.64
2023-01-15T07:40:13.376Z,63.54
2023-01-15T07:41:19.272Z,63.88
2023-01-15T07:42:24.901Z,63.79
2023-01-15T07:43:30.456Z,63.80
2023-01-15T07:44:35.985Z,63.81
2023-01-15T07:45:41.733Z,63.36
2023-01-15T07:46:47.925Z,63.32
2023-01-15T07:47:53.235Z,63.04
2023-01-15T07:48:58.630Z,63.33
2023-01-15T07:49:45.615Z,63.44
2023-01-15T07:50:32.494Z,63.21
2023-01-15T07:51:19.613Z,62.78
2023-01-15T07:52:06.478Z,62.52
2023-01-15T07:52:53.821Z,62.73
2023-01-15T07:53:41.555Z,62.57
2023-01-15T07:54:29.449Z,63.03
2023-01-15T07:55:16.448Z,63.01
2023-01-15T07:56:03.341Z,62.90
2023-01-15T07:56:51.223Z,62.75
2023-01-15T07:57:38.145Z,63.05
2023-01-15T07:58:25.058Z,63.14
2023-01-15T07:59:11.968Z,62.56
2023-01-15T07:59:58.945Z,62.62
2023-01-15T08:00:45.863Z,62.52
2023-01-15T08:01:32.825Z,62.85
2023-01-15T08:02:21.685Z,63.04
2023-01-15T08:03:09.502Z,62.65
2023-01-15T08:03:56.367Z,62.47
2023-01-15T08:04:43.429Z,62.31
2023-01-15T08:05:30.290Z,62.53
2023-01-15T08:06:17.135Z,62.49
2023-01-15T08:07:04.882Z,62.78
2023-01-15T08:07:51.853Z,62.30
2023-01-15T08:08:38.826Z,62.13
2023-01-15T08:09:26.154Z,62.13
2023-01-15T08:10:14.136Z,62.41
2023-01-15T08:11:22.454Z,62.42
2023-01-15T08:12:29.986Z,62.72
2023-01-15T08:13:35.863Z,62.26
2023-01-15T08:14:41.206Z,61.73
2023-01-15T08:15:31.292Z,61.60
2023-01-15T08:16:18.188Z,61.14
2023-01-15T08:17:05.141Z,61.60
2023-01-15T08:17:52.312Z,61.57
2023-01-15T08:18:39.340Z,61.58
2023-01-15T08:19:27.044Z,61.75
2023-01-15T08:20:19.549Z,61.56
2023-01-15T08:21:06.708Z,61.47
2023-01-15T08:21:53.564Z,61.57
2023-01-15T08:22:41.330Z,61.35
2023-01-15T08:23:28.273Z,61.50
2023-01-15T08:24:15.173Z,61.60
2023-01-15T08:25:02.159Z,61.29
2023-01-15T08:25:48.987Z,61.14
2023-01-15T08:26:35.873Z,61.83
2023-01-15T08:27:22.785Z,61.90
2023-01-15T08:28:09.657Z,61.26
2023-01-15T08:28:56.486Z,60.77
2023-01-15T08:29:43.474Z,60.30
2023-01-15T08:30:30.491Z,60.03
2023-01-15T08:31:17.310Z,60.61
2023-01-15T08:32:04.333Z,60.67
2023-01-15T08:32:51.516Z,60.28
2023-01-15T08:33:38.422Z,60.47
2023-01-15T08:34:25.336Z,60.37
2023-01-15T08:35:13.360Z,60.07
2023-01-15T08:36:00.245Z,60.54
2023-01-15T08:36:47.155Z,60.54
2023-01-15T08:37:34.371Z,60.19
2023-01-15T08:38:21.227Z,59.67
2023-01-15T08:39:08.050Z,59.79
2023-01-15T08:39:54.905Z,60.69
2023-01-15T08:40:58.908Z,60.30
2023-01-15T08:41:45.933Z,60.67
2023-01-15T08:42:32.858Z,60.04
2023-01-15T08:43:19.705Z,59.81
2023-01-15T08:44:06.915Z,59.98
2023-01-15T08:44:53.724Z,60.31
2023-01-15T08:45:40.663Z,58.94
2023-01-15T08:46:27.582Z,59.04
2023-01-15T08:47:15.394Z,59.02
2023-01-15T08:48:02.265Z,59.81
2023-01-15T08:48:49.497Z,59.53
2023-01-15T08:49:36.305Z,59.35
2023-01-15T08:50:23.201Z,59.36
2023-01-15T08:51:11.411Z,58.88
2023-01-15T08:51:58.421Z,59.51
2023-01-15T08:52:45.234Z,59.35
2023-01-15T08:53:32.174Z,58.84
2023-01-15T08:54:21.375Z,58.59
2023-01-15T08:55:08.712Z,58.39
2023-01-15T08:55:55.588Z,59.36
2023-01-15T08:56:42.421Z,59.40
2023-01-15T08:57:29.253Z,58.94
2023-01-15T08:58:16.216Z,58.44
2023-01-15T08:59:06.681Z,58.74
2023-01-15T08:59:53.506Z,58.44
2023-01-15T09:00:40.534Z,58.19
2023-01-15T09:01:27.568Z,58.77
2023-01-15T09:02:15.762Z,58.09
2023-01-15T09:03:02.734Z,58.19
2023-01-15T09:03:49.600Z,57.72
2023-01-15T09:04:36.749Z,57.89
2023-01-15T09:05:23.617Z,58.21
2023-01-15T09:06:11.463Z,57.99
2023-01-15T09:06:58.371Z,57.39
2023-01-15T09:07:45.266Z,57.46
2023-01-15T09:08:32.247Z,57.47
2023-01-15T09:09:19.247Z,57.56
2023-01-15T09:10:06.894Z,57.89
2023-01-15T09:11:01.129Z,58.10
2023-01-15T09:11:47.944Z,57.27
2023-01-15T09:12:34.874Z,57.14
2023-01-15T09:13:21.803Z,57.96
2023-01-15T09:14:09.308Z,57.65
2023-01-15T09:15:17.334Z,58.24
2023-01-15T09:16:05.866Z,57.58
2023-01-15T09:16:52.831Z,57.44
2023-01-15T09:17:41.115Z,57.97
2023-01-15T09:18:28.083Z,57.88
2023-01-15T09:19:15.034Z,58.02
2023-01-15T09:20:03.335Z,56.96
2023-01-15T09:20:50.264Z,56.89
2023-01-15T09:21:37.197Z,57.05
2023-01-15T09:22:24.099Z,57.40
2023-01-15T09:23:11.004Z,57.00
2023-01-15T09:23:57.814Z,56.92
2023-01-15T09:24:44.967Z,57.14
2023-01-15T09:25:31.824Z,57.59
2023-01-15T09:26:29.890Z,57.19
2023-01-15T09:27:16.793Z,57.38
2023-01-15T09:28:03.765Z,57.30
2023-01-15T09:28:50.626Z,57.12
2023-01-15T09:29:37.564Z,57.05
2023-01-15T09:30:24.453Z,58.29
2023-01-15T09:31:11.271Z,56.90
2023-01-15T09:31:58.166Z,57.23
2023-01-15T09:32:45.245Z,57.07
2023-01-15T09:33:32.092Z,56.73
2023-01-15T09:34:19.048Z,57.11
2023-01-15T09:35:06.352Z,56.63
2023-01-15T09:35:53.604Z,56.68
2023-01-15T09:36:41.396Z,56.99
2023-01-15T09:37:28.404Z,57.12
2023-01-15T09:38:19.912Z,56.40
2023-01-15T09:39:06.790Z,56.34
2023-01-15T09:39:53.692Z,56.74
2023-01-15T09:40:56.894Z,56.20
2023-01-15T09:42:06.890Z,55.78
2023-01-15T09:42:59.056Z,56.30
2023-01-15T09:44:18.566Z,56.19
2023-01-15T09:45:19.246Z,55.65
2023-01-15T09:46:17.948Z,55.18
2023-01-15T09:47:10.704Z,56.52
2023-01-15T09:48:09.705Z,55.22
2023-01-15T09:49:16.125Z,55.35
2023-01-15T09:50:39.883Z,55.86
2023-01-15T09:51:38.702Z,55.79
2023-01-15T09:53:04.547Z,56.37
2023-01-15T09:54:08.563Z,55.53
2023-01-15T09:55:15.946Z,55.53
2023-01-15T09:56:03.763Z,55.99
2023-01-15T09:56:50.746Z,56.13
2023-01-15T09:57:37.994Z,55.98
2023-01-15T09:58:36.338Z,56.18
2023-01-15T09:59:34.226Z,56.15
2023-01-15T10:00:27.334Z,56.02
2023-01-15T10:01:30.301Z,56.25
2023-01-15T10:02:22.773Z,56.62
2023-01-15T10:03:24.774Z,55.85
2023-01-15T10:04:30.922Z,55.94
2023-01-15T10:05:23.782Z,55.94
2023-01-15T10:06:29.168Z,55.92
2023-01-15T10:07:26.003Z,55.68
2023-01-15T10:08:41.722Z,55.51
2023-01-15T10:09:35.472Z,55.73
2023-01-15T10:10:27.224Z,55.53
2023-01-15T10:11:22.329Z,55.87
2023-01-15T10:12:36.305Z,55.76
2023-01-15T10:13:47.444Z,56.34
2023-01-15T10:14:48.426Z,56.23
2023-01-15T10:16:01.478Z,56.18
2023-01-15T10:16:48.459Z,56.01
2023-01-15T10:17:44.251Z,55.81
2023-01-15T10:18:31.256Z,55.81
2023-01-15T10:19:18.166Z,56.68
2023-01-15T10:20:05.514Z,56.65
2023-01-15T10:21:05.503Z,56.48
2023-01-15T10:22:07.843Z,56.67
2023-01-15T10:23:22.489Z,56.40
2023-01-15T10:24:15.078Z,55.84
2023-01-15T10:25:02.832Z,55.92
2023-01-15T10:25:52.351Z,56.06
2023-01-15T10:26:48.564Z,56.74
2023-01-15T10:27:36.875Z,55.87
2023-01-15T10:28:32.769Z,56.36
2023-01-15T10:29:32.174Z,56.55
2023-01-15T10:30:43.575Z,55.86
2023-01-15T10:31:49.732Z,55.38
2023-01-15T10:33:03.457Z,55.99
2023-01-15T10:34:23.383Z,57.01
2023-01-15T10:35:48.574Z,56.43
2023-01-15T10:36:49.859Z,55.98
2023-01-15T10:37:45.834Z,56.64
2023-01-15T10:38:38.704Z,55.75
2023-01-15T10:39:53.456Z,56.04
2023-01-15T10:40:46.595Z,56.14
2023-01-15T10:41:48.454Z,56.11
2023-01-15T10:42:53.733Z,56.47
2023-01-15T10:44:01.719Z,55.82
2023-01-15T10:45:03.394Z,56.17
2023-01-15T10:45:57.170Z,56.41
2023-01-15T10:46:47.545Z,56.67
2023-01-15T10:47:38.370Z,56.39
2023-01-15T10:48:31.441Z,56.58
2023-01-15T10:49:19.014Z,57.10
2023-01-15T10:50:19.113Z,56.74
2023-01-15T10:51:40.017Z,57.24
2023-01-15T10:52:34.054Z,57.58
2023-01-15T10:53:42.994Z,58.51
2023-01-15T10:54:34.706Z,58.15